Main page
METAR-TAF:

METAR-TAF

Airports :

A Coruña Airport

A Coruña, Spain

latitude: 43-18N, longitude: 008-23W, elevation: 97 m

Current weather observation

The report was made 42 minutes ago, at 07:30 UTC
Wind 2 kt from variable directions
Temperature 6°C
Humidity 93%
Pressure 1031 hPa
Visibility 10 km or more
Few clouds at a height of 3000 ft

METAR: LECO 200730Z VRB02KT 9999 FEW030 06/05 Q1031 NOSIG

Time: 09:12 (08:12 UTC)

Forecast

The report was made 6 hours and 12 minutes ago, at 02:00 UTC
Forecast valid from 20 at 03 UTC to 21 at 03 UTC
Wind 7 kt from the Northeast
Visibility 10 km or more
Scattered clouds at a height of 3000 ft
Probability 30% :
Temporary
from 20 at 03 UTC to 20 at 07 UTC
Visibility: 3000 m
mist, patches of fog

TAF: LECO 200200Z 2003/2103 04007KT 9999 SCT030 TX16/2015Z TN03/2103Z PROB30 TEMPO 2003/2007 3000 BR BCFG

Weather observations and forecasts of more than 4000 airports (METAR and TAF reports).

The available stations are represented by yellow and red dots on the map.

Hover mouse over dot to see the name of the station.

Then click to see weather observations and forecasts.

To change the map : click on the green buttons with a black cross to zoom in, on the green button with a dash to zoom out, or on the green arrows for adjacent maps.


METAR-TAF: